Time;durP1;ratioP1;P1;durP2;ratioP2;P2;SDS_P1;SDS_P2;PMS_P1;PMS_P2;Temp;Humidity;BMP_temperature;BMP_pressure;BME280_temperature;BME280_humidity;BME280_pressure;Samples;Min_cycle;Max_cycle;Signal;HPM_P1;HPM_P2
2021/11/15 00:00:27;;;;;;;57.23;27.33;;;7.40;99.90;;;;;;5030817;28;20203;-59
2021/11/15 00:02:55;;;;;;;54.70;25.53;;;7.40;99.90;;;;;;5020389;28;20207;-59
2021/11/15 00:05:23;;;;;;;58.37;25.87;;;7.40;99.90;;;;;;5006989;28;20212;-59
2021/11/15 00:07:50;;;;;;;55.10;26.57;;;7.40;99.90;;;;;;5025758;28;20214;-59
2021/11/15 00:10:17;;;;;;;50.83;25.67;;;7.40;99.90;;;;;;5011629;28;20654;-58
2021/11/15 00:12:46;;;;;;;52.27;26.57;;;7.40;99.90;;;;;;5018386;28;20223;-59
2021/11/15 00:15:14;;;;;;;55.97;26.90;;;7.40;99.90;;;;;;5012507;28;20207;-59
2021/11/15 00:17:41;;;;;;;51.23;24.33;;;7.40;99.90;;;;;;5021289;28;20211;-58
2021/11/15 00:20:09;;;;;;;53.80;26.13;;;7.40;99.90;;;;;;5017662;28;20203;-58
2021/11/15 00:22:37;;;;;;;53.27;25.60;;;7.40;99.90;;;;;;5022972;28;20657;-58
2021/11/15 00:25:05;;;;;;;60.50;27.57;;;7.40;99.90;;;;;;5009532;28;20219;-59
2021/11/15 00:27:32;;;;;;;51.47;24.63;;;7.40;99.90;;;;;;5018089;28;20211;-59
2021/11/15 00:30:00;;;;;;;54.50;26.30;;;7.40;99.90;;;;;;5020565;28;20210;-57
2021/11/15 00:32:26;;;;;;;59.23;27.33;;;7.40;99.90;;;;;;5021136;28;20192;-59
2021/11/15 00:34:53;;;;;;;53.30;26.20;;;7.40;99.90;;;;;;5018695;28;20196;-59
2021/11/15 00:37:20;;;;;;;56.73;26.57;;;7.30;99.90;;;;;;5017565;28;20216;-59
2021/11/15 00:39:48;;;;;;;52.10;26.13;;;7.40;99.90;;;;;;5027395;28;20203;-59
2021/11/15 00:42:15;;;;;;;58.83;27.10;;;7.40;99.90;;;;;;5004337;28;20231;-59
2021/11/15 00:44:42;;;;;;;59.10;27.33;;;7.40;99.90;;;;;;5022811;28;20226;-59
2021/11/15 00:47:09;;;;;;;58.03;26.70;;;7.40;99.90;;;;;;5019299;28;20228;-59
2021/11/15 00:49:36;;;;;;;54.67;25.80;;;7.40;99.90;;;;;;5024509;28;20208;-59
2021/11/15 00:52:03;;;;;;;54.17;26.23;;;7.40;99.90;;;;;;5016505;28;20203;-59
2021/11/15 00:54:29;;;;;;;56.43;25.10;;;7.40;99.90;;;;;;5021136;28;20207;-58
2021/11/15 00:56:58;;;;;;;53.30;25.13;;;7.40;99.90;;;;;;5011754;28;20224;-59
2021/11/15 00:59:26;;;;;;;52.27;26.03;;;7.40;99.90;;;;;;5017603;28;20192;-58
2021/11/15 01:01:53;;;;;;;56.30;25.60;;;7.40;99.90;;;;;;5022208;28;20184;-59
2021/11/15 01:04:20;;;;;;;53.57;24.97;;;7.40;99.90;;;;;;5025270;28;20227;-59
2021/11/15 01:06:46;;;;;;;54.63;25.07;;;7.40;99.90;;;;;;5022370;28;20224;-59
2021/11/15 01:09:13;;;;;;;56.87;25.93;;;7.40;99.90;;;;;;5013716;28;20203;-59
2021/11/15 01:11:40;;;;;;;60.50;26.30;;;7.40;99.90;;;;;;5009400;28;20286;-59
2021/11/15 01:14:08;;;;;;;58.07;26.50;;;7.40;99.90;;;;;;5018527;28;20612;-59
2021/11/15 01:16:34;;;;;;;52.50;26.33;;;7.40;99.90;;;;;;5023590;28;20595;-59
2021/11/15 01:19:01;;;;;;;58.00;27.43;;;7.40;99.90;;;;;;5026436;28;20291;-58
2021/11/15 01:21:28;;;;;;;51.70;25.77;;;7.40;99.90;;;;;;5016663;28;20212;-58
2021/11/15 01:23:55;;;;;;;48.73;24.57;;;7.40;99.90;;;;;;5023743;28;20207;-59
2021/11/15 01:26:22;;;;;;;52.17;25.23;;;7.40;99.90;;;;;;5012548;28;20238;-59
2021/11/15 01:28:49;;;;;;;53.10;25.80;;;7.30;99.90;;;;;;5026065;28;20211;-58
2021/11/15 01:31:17;;;;;;;56.07;25.80;;;7.40;99.90;;;;;;5023464;28;20196;-59
2021/11/15 01:33:44;;;;;;;56.43;25.77;;;7.30;99.90;;;;;;5023897;28;20562;-59
2021/11/15 01:36:11;;;;;;;47.47;24.57;;;7.30;99.90;;;;;;5025338;28;20219;-59
2021/11/15 01:38:39;;;;;;;56.27;25.80;;;7.30;99.90;;;;;;5021779;28;20243;-58
2021/11/15 01:41:07;;;;;;;51.13;23.73;;;7.30;99.90;;;;;;5030229;28;20200;-58
2021/11/15 01:43:34;;;;;;;52.30;25.60;;;7.30;99.90;;;;;;5010848;28;20208;-59
2021/11/15 01:46:01;;;;;;;51.23;24.67;;;7.30;99.90;;;;;;5021049;28;20232;-58
2021/11/15 01:48:29;;;;;;;59.43;26.37;;;7.30;99.90;;;;;;5025460;28;20200;-59
2021/11/15 01:50:56;;;;;;;54.73;25.20;;;7.30;99.90;;;;;;5020076;28;20218;-58
2021/11/15 01:53:23;;;;;;;61.73;25.37;;;7.30;99.90;;;;;;5021317;28;20291;-58
2021/11/15 01:55:50;;;;;;;55.77;25.37;;;7.30;99.90;;;;;;5025644;28;20234;-59
2021/11/15 01:58:17;;;;;;;59.67;25.83;;;7.30;99.90;;;;;;5011696;28;20215;-59
2021/11/15 02:00:47;;;;;;;55.30;25.93;;;7.30;99.90;;;;;;5024710;28;20204;-59
2021/11/15 02:03:14;;;;;;;61.23;26.50;;;7.30;99.90;;;;;;5025009;28;20283;-59
2021/11/15 02:05:44;;;;;;;58.13;24.70;;;7.30;99.90;;;;;;5024996;28;20220;-59
2021/11/15 02:08:10;;;;;;;56.67;25.60;;;7.30;99.90;;;;;;5030951;28;20666;-58
2021/11/15 02:10:37;;;;;;;57.97;25.17;;;7.30;99.90;;;;;;5009428;28;20192;-58
2021/11/15 02:13:04;;;;;;;60.47;26.97;;;7.30;99.90;;;;;;5026017;28;20188;-59
2021/11/15 02:15:31;;;;;;;56.90;26.03;;;7.30;99.90;;;;;;5003250;28;20211;-58
2021/11/15 02:17:58;;;;;;;60.67;27.10;;;7.30;99.90;;;;;;5024672;28;20208;-59
2021/11/15 02:20:28;;;;;;;58.70;26.63;;;7.30;99.90;;;;;;5023247;28;20215;-59
2021/11/15 02:22:55;;;;;;;56.00;25.53;;;7.30;99.90;;;;;;5027556;28;20223;-59
2021/11/15 02:25:25;;;;;;;61.67;27.63;;;7.30;99.90;;;;;;5018146;28;20223;-58
2021/11/15 02:27:52;;;;;;;58.33;26.87;;;7.30;99.90;;;;;;5024710;28;20192;-58
2021/11/15 02:30:21;;;;;;;58.47;26.50;;;7.30;99.90;;;;;;5009992;28;20597;-59
2021/11/15 02:32:48;;;;;;;56.67;25.97;;;7.30;99.90;;;;;;5014914;28;20192;-59
2021/11/15 02:35:16;;;;;;;58.93;26.13;;;7.30;99.90;;;;;;5022724;28;20207;-59
2021/11/15 02:37:45;;;;;;;58.77;26.37;;;7.30;99.90;;;;;;5028922;28;20216;-58
2021/11/15 02:40:15;;;;;;;54.63;25.37;;;7.30;99.90;;;;;;5022758;28;20208;-58
2021/11/15 02:42:42;;;;;;;59.70;26.60;;;7.30;99.90;;;;;;5016748;28;20211;-59
2021/11/15 02:45:11;;;;;;;57.23;25.73;;;7.30;99.90;;;;;;5010724;28;20223;-59
2021/11/15 02:47:38;;;;;;;56.93;26.77;;;7.30;99.90;;;;;;5015266;28;20218;-59
2021/11/15 02:50:07;;;;;;;60.20;27.30;;;7.30;99.90;;;;;;5025066;28;20204;-59
2021/11/15 02:52:34;;;;;;;55.47;26.30;;;7.30;99.90;;;;;;5016037;28;20211;-59
2021/11/15 02:55:02;;;;;;;57.17;27.20;;;7.20;99.90;;;;;;5020959;28;20195;-59
2021/11/15 02:57:28;;;;;;;62.17;28.30;;;7.20;99.90;;;;;;5021554;28;20227;-59
2021/11/15 02:59:55;;;;;;;66.67;27.83;;;7.20;99.90;;;;;;5026582;28;20217;-59
2021/11/15 03:02:23;;;;;;;73.60;29.07;;;7.20;99.90;;;;;;5013481;28;20571;-58
2021/11/15 03:04:50;;;;;;;63.03;26.70;;;7.20;99.90;;;;;;5021626;28;20200;-59
2021/11/15 03:07:16;;;;;;;63.40;28.43;;;7.20;99.90;;;;;;5025012;28;20243;-59
2021/11/15 03:09:43;;;;;;;63.07;26.53;;;7.10;99.90;;;;;;5025680;28;20196;-59
2021/11/15 03:12:11;;;;;;;61.83;27.33;;;7.10;99.90;;;;;;5019706;28;20212;-59
2021/11/15 03:14:38;;;;;;;69.17;28.30;;;7.10;99.90;;;;;;5020650;28;20828;-60
2021/11/15 03:17:05;;;;;;;64.93;28.57;;;7.10;99.90;;;;;;5009690;28;20227;-59
2021/11/15 03:19:32;;;;;;;64.13;27.97;;;7.10;99.90;;;;;;5020316;28;20595;-59
2021/11/15 03:21:59;;;;;;;63.17;27.43;;;7.00;99.90;;;;;;5029310;28;20203;-59
2021/11/15 03:24:25;;;;;;;70.00;30.23;;;7.00;99.90;;;;;;5021859;28;20204;-59
2021/11/15 03:26:52;;;;;;;61.10;27.93;;;7.00;99.90;;;;;;5019214;28;20711;-59
2021/11/15 03:29:20;;;;;;;66.47;29.23;;;7.00;99.90;;;;;;5022923;28;20662;-59
2021/11/15 03:31:47;;;;;;;67.03;28.20;;;7.00;99.90;;;;;;5009533;28;21689;-59
2021/11/15 03:34:15;;;;;;;65.60;27.97;;;7.00;99.90;;;;;;5023619;28;20204;-58
2021/11/15 03:36:43;;;;;;;73.53;29.83;;;7.00;99.90;;;;;;5023545;28;20219;-47
2021/11/15 03:39:12;;;;;;;68.00;28.40;;;7.00;99.90;;;;;;5023802;28;20204;-45
2021/11/15 03:41:41;;;;;;;64.03;28.93;;;7.00;99.90;;;;;;5024518;28;20210;-46
2021/11/15 03:44:08;;;;;;;64.53;27.90;;;7.00;99.90;;;;;;5023861;28;20219;-48
2021/11/15 03:46:36;;;;;;;66.63;28.87;;;7.00;99.90;;;;;;5019892;28;20220;-49
2021/11/15 03:49:04;;;;;;;71.17;29.00;;;7.00;99.90;;;;;;5009334;28;20231;-47
2021/11/15 03:51:30;;;;;;;66.40;29.10;;;7.00;99.90;;;;;;5020099;28;20210;-46
2021/11/15 03:53:57;;;;;;;61.07;26.60;;;7.00;99.90;;;;;;5018079;28;20203;-48
2021/11/15 03:56:28;;;;;;;62.70;27.50;;;7.00;99.90;;;;;;5023442;28;20250;-48
2021/11/15 03:58:56;;;;;;;64.57;29.40;;;7.00;99.90;;;;;;5018133;28;20204;-49
2021/11/15 04:01:27;;;;;;;69.70;28.77;;;7.00;99.90;;;;;;5021525;28;20674;-50
2021/11/15 04:03:58;;;;;;;61.93;28.77;;;7.00;99.90;;;;;;5014348;28;20259;-50
2021/11/15 04:06:28;;;;;;;58.20;26.90;;;7.00;99.90;;;;;;5020115;28;20220;-51
2021/11/15 04:08:58;;;;;;;71.27;27.87;;;7.00;99.90;;;;;;5023308;28;20222;-45
2021/11/15 04:11:28;;;;;;;69.73;28.50;;;7.00;99.90;;;;;;5023152;28;20219;-49
2021/11/15 04:13:59;;;;;;;69.37;28.10;;;7.00;99.90;;;;;;5023142;28;20208;-48
2021/11/15 04:16:26;;;;;;;65.00;27.60;;;7.00;99.90;;;;;;5016200;28;20220;-51
2021/11/15 04:18:56;;;;;;;71.63;28.30;;;7.00;99.90;;;;;;5023001;28;20195;-46
2021/11/15 04:21:24;;;;;;;59.03;27.07;;;7.00;99.90;;;;;;5008351;28;20200;-47
2021/11/15 04:23:51;;;;;;;62.60;27.30;;;6.90;99.90;;;;;;5025327;28;20468;-46
2021/11/15 04:26:18;;;;;;;63.23;27.53;;;6.90;99.90;;;;;;5022111;28;20228;-48
2021/11/15 04:28:44;;;;;;;67.77;27.77;;;6.90;99.90;;;;;;5019319;28;20231;-45
2021/11/15 04:31:11;;;;;;;72.57;29.13;;;6.90;99.90;;;;;;5023242;28;20200;-47
2021/11/15 04:33:38;;;;;;;66.00;28.77;;;6.90;99.90;;;;;;5019918;28;20967;-50
2021/11/15 04:36:06;;;;;;;72.37;27.93;;;6.90;99.90;;;;;;5009992;28;20216;-46
2021/11/15 04:38:33;;;;;;;61.93;28.47;;;6.90;99.90;;;;;;5019647;28;20203;-51
2021/11/15 04:41:00;;;;;;;67.93;26.33;;;6.90;99.90;;;;;;5017946;28;20208;-50
2021/11/15 04:43:27;;;;;;;70.87;29.73;;;6.90;99.90;;;;;;5020078;28;20208;-48
2021/11/15 04:45:53;;;;;;;70.57;27.70;;;6.90;99.90;;;;;;5012419;28;20223;-46
2021/11/15 04:48:20;;;;;;;70.77;30.10;;;6.90;99.90;;;;;;5025155;28;20198;-49
2021/11/15 04:50:47;;;;;;;66.33;27.37;;;6.90;99.90;;;;;;5009708;28;20208;-48
2021/11/15 04:53:15;;;;;;;64.67;26.97;;;6.90;99.90;;;;;;5016725;28;20207;-48
2021/11/15 04:55:41;;;;;;;63.17;26.67;;;6.90;99.90;;;;;;5019235;28;20212;-47
2021/11/15 04:58:08;;;;;;;66.03;27.67;;;6.80;99.90;;;;;;5028927;28;20198;-48
2021/11/15 05:00:37;;;;;;;69.07;27.23;;;6.80;99.90;;;;;;5012297;28;20208;-48
2021/11/15 05:03:04;;;;;;;62.37;25.73;;;6.80;99.90;;;;;;5027102;28;20196;-46
2021/11/15 05:05:31;;;;;;;68.77;27.57;;;6.80;99.90;;;;;;5015469;28;20204;-46
2021/11/15 05:07:57;;;;;;;66.83;27.33;;;6.80;99.90;;;;;;5010870;28;21008;-45
2021/11/15 05:10:27;;;;;;;63.20;26.90;;;6.80;99.90;;;;;;5026455;28;20202;-45
2021/11/15 05:12:56;;;;;;;62.03;26.53;;;6.80;99.90;;;;;;5022508;28;20852;-50
2021/11/15 05:15:23;;;;;;;60.57;26.10;;;6.80;99.90;;;;;;5023394;28;20219;-45
2021/11/15 05:17:51;;;;;;;68.80;27.13;;;6.80;99.90;;;;;;5025062;28;20214;-49
2021/11/15 05:20:19;;;;;;;61.43;26.33;;;6.70;99.90;;;;;;5029994;28;20222;-46
2021/11/15 05:22:46;;;;;;;60.13;26.13;;;6.70;99.90;;;;;;5012693;28;20257;-50
2021/11/15 05:25:14;;;;;;;57.33;25.33;;;6.80;99.90;;;;;;5017943;28;20835;-49
2021/11/15 05:27:43;;;;;;;54.43;24.97;;;6.80;99.90;;;;;;5024510;28;20224;-47
2021/11/15 05:30:13;;;;;;;58.83;25.83;;;6.70;99.90;;;;;;5020658;28;20331;-48
2021/11/15 05:32:40;;;;;;;69.03;27.53;;;6.70;99.90;;;;;;5020267;28;20215;-47
2021/11/15 05:35:08;;;;;;;58.87;26.60;;;6.70;99.90;;;;;;5023134;28;20200;-47
2021/11/15 05:37:34;;;;;;;53.93;24.60;;;6.60;99.90;;;;;;5013412;28;20227;-50
2021/11/15 05:40:01;;;;;;;54.33;25.40;;;6.60;99.90;;;;;;5022866;28;20195;-45
2021/11/15 05:42:28;;;;;;;59.37;26.93;;;6.60;99.90;;;;;;5021080;28;20664;-49
2021/11/15 05:44:56;;;;;;;56.97;24.87;;;6.60;99.90;;;;;;5013380;28;20296;-47
2021/11/15 05:47:22;;;;;;;53.43;23.83;;;6.60;99.90;;;;;;5020538;28;20231;-48
2021/11/15 05:49:49;;;;;;;51.07;24.43;;;6.60;99.90;;;;;;5020673;28;20208;-44
2021/11/15 05:52:18;;;;;;;47.83;23.37;;;6.60;99.90;;;;;;5008337;28;20212;-46
2021/11/15 05:54:44;;;;;;;53.13;23.03;;;6.60;99.90;;;;;;5011369;28;20204;-46
2021/11/15 05:57:11;;;;;;;50.13;23.13;;;6.60;99.90;;;;;;5018198;28;20219;-52
2021/11/15 05:59:38;;;;;;;48.00;23.50;;;6.60;99.90;;;;;;5017802;28;20219;-47
2021/11/15 06:02:06;;;;;;;50.30;23.23;;;6.60;99.90;;;;;;5023603;28;20273;-50
2021/11/15 06:04:33;;;;;;;50.53;23.90;;;6.60;99.90;;;;;;5017789;28;20251;-50
2021/11/15 06:06:59;;;;;;;43.37;21.53;;;6.60;99.90;;;;;;5013079;28;20230;-47
2021/11/15 06:09:26;;;;;;;50.57;23.07;;;6.60;99.90;;;;;;5006889;28;20204;-46
2021/11/15 06:11:53;;;;;;;48.77;23.17;;;6.60;99.90;;;;;;5024245;28;20215;-48
2021/11/15 06:14:19;;;;;;;47.60;22.97;;;6.60;99.90;;;;;;5018459;28;20204;-49
2021/11/15 06:16:47;;;;;;;44.07;22.30;;;6.60;99.90;;;;;;5013790;28;20231;-48
2021/11/15 06:19:15;;;;;;;46.10;22.97;;;6.60;99.90;;;;;;5019978;28;20203;-45
2021/11/15 06:21:42;;;;;;;50.37;22.83;;;6.60;99.90;;;;;;5024689;28;20204;-48
2021/11/15 06:24:08;;;;;;;43.00;21.10;;;6.60;99.90;;;;;;5010570;28;20211;-52
2021/11/15 06:26:35;;;;;;;51.07;21.97;;;6.60;99.90;;;;;;5026321;28;20711;-47
2021/11/15 06:29:02;;;;;;;46.07;21.63;;;6.60;99.90;;;;;;5016206;28;20200;-48
2021/11/15 06:31:28;;;;;;;47.30;23.60;;;6.70;99.90;;;;;;5021766;28;20200;-47
2021/11/15 06:33:55;;;;;;;42.80;21.10;;;6.70;99.90;;;;;;5017638;28;20274;-47
2021/11/15 06:36:25;;;;;;;44.70;22.70;;;6.70;99.90;;;;;;5022911;28;20238;-47
2021/11/15 06:38:55;;;;;;;44.50;23.27;;;6.70;99.90;;;;;;5006832;28;20211;-50
2021/11/15 06:41:22;;;;;;;47.87;23.07;;;6.70;99.90;;;;;;5019501;28;20207;-46
2021/11/15 06:43:49;;;;;;;45.63;22.17;;;6.70;99.90;;;;;;5020117;28;20928;-50
2021/11/15 06:46:16;;;;;;;48.87;22.90;;;6.70;99.90;;;;;;5018611;28;20238;-46
2021/11/15 06:48:43;;;;;;;48.40;22.80;;;6.70;99.90;;;;;;5017162;28;20200;-50
2021/11/15 06:51:10;;;;;;;42.90;22.13;;;6.70;99.90;;;;;;5020521;28;20207;-48
2021/11/15 06:53:39;;;;;;;45.73;22.23;;;6.70;99.90;;;;;;5023253;28;20203;-46
2021/11/15 06:56:07;;;;;;;45.70;22.40;;;6.70;99.90;;;;;;5007488;28;20988;-46
2021/11/15 06:58:35;;;;;;;42.57;20.43;;;6.70;99.90;;;;;;5026284;28;20204;-48
2021/11/15 07:01:03;;;;;;;45.80;21.57;;;6.70;99.90;;;;;;5015663;28;20196;-46
2021/11/15 07:03:29;;;;;;;41.47;21.07;;;6.70;99.90;;;;;;5016937;28;20204;-46
2021/11/15 07:05:56;;;;;;;45.30;23.20;;;6.80;99.90;;;;;;5013366;28;20238;-52
2021/11/15 07:08:23;;;;;;;42.67;22.23;;;6.80;99.90;;;;;;5026823;28;20680;-46
2021/11/15 07:10:51;;;;;;;46.63;23.37;;;6.80;99.90;;;;;;5009320;28;20204;-50
2021/11/15 07:13:18;;;;;;;41.37;22.23;;;6.80;99.90;;;;;;5023991;28;20196;-48
2021/11/15 07:15:45;;;;;;;42.23;21.77;;;6.80;99.90;;;;;;5015646;28;20220;-47
2021/11/15 07:18:12;;;;;;;51.43;24.13;;;6.80;99.90;;;;;;5018923;28;20200;-50
2021/11/15 07:20:39;;;;;;;44.80;22.77;;;6.80;99.90;;;;;;5028108;28;20206;-49
2021/11/15 07:23:06;;;;;;;46.37;22.67;;;6.80;99.90;;;;;;5024364;28;20192;-48
2021/11/15 07:25:32;;;;;;;41.27;21.43;;;6.80;99.90;;;;;;5005723;28;20204;-47
2021/11/15 07:28:00;;;;;;;40.27;21.43;;;6.90;99.90;;;;;;5018830;28;20612;-46
2021/11/15 07:30:28;;;;;;;44.33;23.37;;;6.90;99.90;;;;;;5017530;28;20184;-48
2021/11/15 07:32:55;;;;;;;40.77;21.37;;;6.90;99.90;;;;;;5019828;28;20287;-48
2021/11/15 07:35:22;;;;;;;46.60;23.03;;;6.90;99.90;;;;;;5009209;28;20211;-49
2021/11/15 07:37:50;;;;;;;45.90;22.83;;;6.90;99.90;;;;;;5021473;28;20195;-52
2021/11/15 07:40:19;;;;;;;43.17;21.90;;;6.90;99.90;;;;;;5016298;28;20694;-52
2021/11/15 07:42:49;;;;;;;44.23;22.90;;;6.90;99.90;;;;;;5017754;28;20218;-46
2021/11/15 07:45:18;;;;;;;43.90;21.87;;;6.90;99.90;;;;;;5019087;28;20613;-50
2021/11/15 07:47:45;;;;;;;40.20;21.57;;;6.90;99.90;;;;;;5018094;28;20224;-49
2021/11/15 07:50:13;;;;;;;44.13;22.67;;;6.90;99.90;;;;;;5016718;28;20699;-47
2021/11/15 07:52:41;;;;;;;41.53;21.27;;;6.90;99.90;;;;;;5021291;28;20275;-47
2021/11/15 07:55:10;;;;;;;40.53;21.33;;;6.90;99.90;;;;;;5018068;28;20200;-49
2021/11/15 07:57:38;;;;;;;37.30;20.47;;;7.00;99.90;;;;;;5009391;28;20362;-48
2021/11/15 08:00:07;;;;;;;42.40;21.77;;;7.00;99.90;;;;;;5026122;28;20200;-50
2021/11/15 08:02:40;;;;;;;41.43;21.17;;;7.00;99.90;;;;;;5014634;28;20208;-51
2021/11/15 08:05:08;;;;;;;43.83;21.23;;;7.00;99.90;;;;;;5014272;28;20208;-49
2021/11/15 08:07:35;;;;;;;40.37;21.07;;;7.00;99.90;;;;;;5012090;28;20236;-48
2021/11/15 08:10:03;;;;;;;35.53;20.23;;;7.00;99.90;;;;;;5026464;28;20203;-52
2021/11/15 08:12:36;;;;;;;36.60;21.33;;;7.10;99.90;;;;;;5010226;28;20204;-48
2021/11/15 08:15:06;;;;;;;37.33;21.10;;;7.10;99.90;;;;;;5007590;28;20204;-48
2021/11/15 08:17:33;;;;;;;38.00;21.00;;;7.10;99.90;;;;;;5017465;28;20212;-46
2021/11/15 08:20:02;;;;;;;38.67;20.27;;;7.10;99.90;;;;;;5011740;28;20216;-50
2021/11/15 08:22:30;;;;;;;36.57;20.17;;;7.10;99.90;;;;;;5012826;28;20731;-52
2021/11/15 08:25:50;;;;;;;40.27;20.77;;;7.10;99.90;;;;;;5014121;28;20266;-47
2021/11/15 08:28:17;;;;;;;38.93;20.90;;;7.20;99.90;;;;;;5011341;28;20220;-47
2021/11/15 08:30:44;;;;;;;32.80;18.67;;;7.10;99.90;;;;;;5017942;28;20188;-51
2021/11/15 08:33:12;;;;;;;37.93;20.27;;;7.20;99.90;;;;;;5023306;28;20195;-46
2021/11/15 08:35:41;;;;;;;38.93;19.67;;;7.10;99.90;;;;;;5009691;28;20203;-52
2021/11/15 08:38:47;;;;;;;36.00;20.17;;;7.20;99.90;;;;;;5012295;28;20567;-49
2021/11/15 08:41:17;;;;;;;35.80;20.23;;;7.20;99.90;;;;;;5026936;28;20286;-49
2021/11/15 08:43:45;;;;;;;38.73;19.10;;;7.20;99.90;;;;;;5006361;28;20211;-45
2021/11/15 08:46:15;;;;;;;39.97;20.13;;;7.20;99.90;;;;;;5022666;28;20212;-47
2021/11/15 08:48:42;;;;;;;39.47;21.13;;;7.20;99.90;;;;;;5015518;28;20965;-51
2021/11/15 08:51:12;;;;;;;37.77;20.93;;;7.20;99.90;;;;;;5017625;28;20204;-45
2021/11/15 08:53:39;;;;;;;36.93;20.90;;;7.20;99.90;;;;;;5011100;28;20200;-50
2021/11/15 08:56:07;;;;;;;35.70;18.87;;;7.20;99.90;;;;;;5021269;28;20216;-48
2021/11/15 08:58:34;;;;;;;33.70;20.17;;;7.20;99.90;;;;;;5018308;28;20203;-48
2021/11/15 09:01:01;;;;;;;36.07;19.87;;;7.20;99.90;;;;;;5016676;28;20215;-48
2021/11/15 09:03:28;;;;;;;37.97;21.13;;;7.20;99.90;;;;;;5019444;28;20223;-50
2021/11/15 09:05:54;;;;;;;36.80;21.10;;;7.20;99.90;;;;;;5007260;28;20219;-46
2021/11/15 09:08:23;;;;;;;35.77;20.20;;;7.20;99.90;;;;;;5013117;28;20216;-52
2021/11/15 09:10:50;;;;;;;37.87;19.13;;;7.20;99.90;;;;;;5017993;28;20258;-50
2021/11/15 09:13:17;;;;;;;37.33;20.13;;;7.20;99.90;;;;;;5018993;28;20692;-47
2021/11/15 09:15:44;;;;;;;39.03;20.70;;;7.20;99.90;;;;;;5006710;28;20826;-47
2021/11/15 09:18:11;;;;;;;36.53;19.40;;;7.20;99.90;;;;;;5019748;28;20203;-46
2021/11/15 09:20:37;;;;;;;34.53;18.93;;;7.20;99.90;;;;;;5018151;28;20207;-45
2021/11/15 09:23:05;;;;;;;34.03;20.13;;;7.20;99.90;;;;;;5006843;28;20196;-47
2021/11/15 09:25:33;;;;;;;37.37;20.03;;;7.20;99.90;;;;;;5015102;28;20910;-47
2021/11/15 09:28:00;;;;;;;36.03;19.60;;;7.20;99.90;;;;;;5020130;28;20212;-46
2021/11/15 09:30:28;;;;;;;37.93;21.07;;;7.20;99.90;;;;;;5010201;28;20207;-46
2021/11/15 09:32:54;;;;;;;39.17;21.03;;;7.20;99.90;;;;;;5013886;28;20214;-47
2021/11/15 09:35:21;;;;;;;35.00;19.37;;;7.30;99.90;;;;;;5009480;28;20740;-46
2021/11/15 09:37:48;;;;;;;37.83;20.43;;;7.30;99.90;;;;;;5016437;28;20208;-50
2021/11/15 09:40:15;;;;;;;33.73;19.37;;;7.30;99.90;;;;;;5015995;28;20211;-51
2021/11/15 09:42:43;;;;;;;34.53;19.57;;;7.30;99.90;;;;;;5013547;28;20202;-46
2021/11/15 09:45:11;;;;;;;33.03;19.60;;;7.30;99.90;;;;;;5019666;28;20676;-49
2021/11/15 09:47:39;;;;;;;35.50;18.73;;;7.30;99.90;;;;;;5005597;28;20249;-49
2021/11/15 09:50:08;;;;;;;33.53;18.50;;;7.30;99.90;;;;;;5015250;28;20219;-52
2021/11/15 09:52:35;;;;;;;33.87;19.80;;;7.30;99.90;;;;;;5023768;28;20835;-47
2021/11/15 09:55:04;;;;;;;32.07;18.57;;;7.30;99.90;;;;;;5019572;28;20744;-49
2021/11/15 09:57:31;;;;;;;33.17;18.30;;;7.30;99.90;;;;;;5018643;28;21649;-50
2021/11/15 09:59:59;;;;;;;32.67;20.03;;;7.30;99.90;;;;;;5026098;28;20207;-47
2021/11/15 10:02:26;;;;;;;36.00;19.97;;;7.20;99.90;;;;;;5010206;28;20200;-46
2021/11/15 10:04:53;;;;;;;33.33;19.07;;;7.30;99.90;;;;;;5018505;28;20612;-47
2021/11/15 10:07:43;;;;;;;36.20;19.77;;;7.20;99.90;;;;;;5021544;28;20251;-48
2021/11/15 10:10:34;;;;;;;32.20;19.20;;;7.30;99.90;;;;;;5019744;28;20212;-50
2021/11/15 10:13:11;;;;;;;31.20;18.03;;;7.30;99.90;;;;;;5022966;28;20200;-45
2021/11/15 10:15:54;;;;;;;33.97;20.13;;;7.30;99.90;;;;;;5020290;28;20230;-51
2021/11/15 10:18:29;;;;;;;36.03;19.97;;;7.30;99.90;;;;;;5010075;28;20230;-50
2021/11/15 10:20:56;;;;;;;34.17;19.50;;;7.30;99.90;;;;;;5020802;28;20211;-46
2021/11/15 10:23:28;;;;;;;34.40;20.60;;;7.30;99.90;;;;;;5020119;28;20207;-47
2021/11/15 10:25:59;;;;;;;30.13;18.87;;;7.30;99.90;;;;;;5019048;28;20219;-48
2021/11/15 10:28:27;;;;;;;32.17;19.10;;;7.30;99.90;;;;;;5013179;28;20228;-50
2021/11/15 10:30:55;;;;;;;34.10;19.50;;;7.30;99.90;;;;;;5023581;28;20204;-48
2021/11/15 10:33:34;;;;;;;40.07;19.97;;;7.30;99.90;;;;;;5003251;28;20231;-50
2021/11/15 10:36:00;;;;;;;43.67;24.20;;;7.30;99.90;;;;;;5019438;28;20717;-47
2021/11/15 10:38:40;;;;;;;35.10;20.40;;;7.30;99.90;;;;;;5019905;28;20204;-47
2021/11/15 10:41:13;;;;;;;33.93;18.90;;;7.30;99.90;;;;;;5019420;28;20207;-51
2021/11/15 10:43:39;;;;;;;37.27;20.33;;;7.30;99.90;;;;;;5018356;28;20313;-45
2021/11/15 10:46:07;;;;;;;36.23;19.27;;;7.30;99.90;;;;;;5020959;28;20223;-49
2021/11/15 10:48:46;;;;;;;35.50;20.77;;;7.20;99.90;;;;;;5010038;28;20211;-48
2021/11/15 10:51:14;;;;;;;37.30;21.00;;;7.30;99.90;;;;;;5026313;28;20568;-51
2021/11/15 10:53:54;;;;;;;33.93;20.03;;;7.30;99.90;;;;;;5017262;28;20196;-48
2021/11/15 10:56:27;;;;;;;35.37;19.20;;;7.30;99.90;;;;;;5015576;28;20255;-48
2021/11/15 10:58:55;;;;;;;34.13;19.37;;;7.30;99.90;;;;;;5017043;28;20460;-50
2021/11/15 11:01:30;;;;;;;34.83;20.00;;;7.30;99.90;;;;;;5015934;28;20216;-45
2021/11/15 11:04:07;;;;;;;32.30;18.90;;;7.30;99.90;;;;;;5005899;28;20200;-48
2021/11/15 11:06:34;;;;;;;35.10;19.50;;;7.30;99.90;;;;;;5013107;28;20219;-50
2021/11/15 11:09:00;;;;;;;40.57;20.87;;;7.30;99.90;;;;;;5018942;28;20219;-46
2021/11/15 11:11:29;;;;;;;35.53;20.43;;;7.30;99.90;;;;;;5019904;28;20874;-46
2021/11/15 11:14:00;;;;;;;37.00;20.83;;;7.30;99.90;;;;;;5021026;28;20799;-46
2021/11/15 11:16:39;;;;;;;37.37;20.13;;;7.30;99.90;;;;;;5022261;28;20750;-52
2021/11/15 11:19:16;;;;;;;38.53;19.53;;;7.30;99.90;;;;;;5012590;28;20207;-48
2021/11/15 11:22:06;;;;;;;36.40;20.53;;;7.20;99.90;;;;;;5020146;28;20200;-47
2021/11/15 11:24:45;;;;;;;38.47;20.53;;;7.20;99.90;;;;;;5017805;28;20208;-46
2021/11/15 11:27:14;;;;;;;34.60;19.27;;;7.20;99.90;;;;;;5023165;28;20337;-50
2021/11/15 11:29:43;;;;;;;35.00;20.13;;;7.20;99.90;;;;;;5016908;28;20219;-51
2021/11/15 11:32:14;;;;;;;39.37;20.00;;;7.20;99.90;;;;;;5019919;28;20668;-46
2021/11/15 11:34:42;;;;;;;35.23;19.73;;;7.20;99.90;;;;;;5008685;28;20685;-50
2021/11/15 11:37:12;;;;;;;39.30;20.93;;;7.30;99.90;;;;;;5025138;28;20715;-45
2021/11/15 11:39:40;;;;;;;33.93;19.83;;;7.20;99.90;;;;;;5016976;28;20686;-47
2021/11/15 11:42:07;;;;;;;33.57;20.50;;;7.20;99.90;;;;;;5016293;28;20678;-47
2021/11/15 11:44:35;;;;;;;37.53;19.87;;;7.20;99.90;;;;;;5023022;28;20207;-52
2021/11/15 11:47:05;;;;;;;37.63;19.20;;;7.20;99.90;;;;;;5012332;28;20220;-49
2021/11/15 11:49:34;;;;;;;34.27;19.00;;;7.30;99.90;;;;;;5018709;28;20219;-50
2021/11/15 11:52:05;;;;;;;38.67;19.47;;;7.30;99.90;;;;;;5015085;28;20719;-48
2021/11/15 11:54:35;;;;;;;37.30;20.80;;;7.30;99.90;;;;;;5013032;28;20215;-50
2021/11/15 11:57:11;;;;;;;38.43;19.87;;;7.30;99.90;;;;;;5014039;28;20224;-48
2021/11/15 11:59:42;;;;;;;34.23;19.70;;;7.30;99.90;;;;;;5011131;28;20768;-50
2021/11/15 12:02:12;;;;;;;40.53;21.37;;;7.30;99.90;;;;;;5015954;28;20211;-48
2021/11/15 12:04:52;;;;;;;36.70;19.80;;;7.30;99.90;;;;;;5008095;28;20196;-50
2021/11/15 12:07:28;;;;;;;38.30;19.40;;;7.30;99.90;;;;;;5019298;28;21007;-48
2021/11/15 12:09:55;;;;;;;37.27;20.37;;;7.30;99.90;;;;;;5015357;28;20225;-48
2021/11/15 12:12:22;;;;;;;34.30;19.20;;;7.30;99.90;;;;;;5023375;28;20219;-49
2021/11/15 12:14:49;;;;;;;36.27;20.50;;;7.30;99.90;;;;;;5008706;28;21671;-50
2021/11/15 12:17:17;;;;;;;35.87;19.43;;;7.30;99.90;;;;;;5025382;28;20226;-49
2021/11/15 12:20:05;;;;;;;35.93;20.17;;;7.30;99.90;;;;;;5015244;28;20203;-51
2021/11/15 12:22:57;;;;;;;33.83;19.80;;;7.30;99.90;;;;;;5007119;28;20291;-47
2021/11/15 12:25:26;;;;;;;34.80;18.83;;;7.30;99.90;;;;;;5020483;28;20218;-46
2021/11/15 12:27:56;;;;;;;38.10;19.27;;;7.30;99.90;;;;;;5015816;28;20458;-46
2021/11/15 12:30:25;;;;;;;32.87;19.47;;;7.30;99.90;;;;;;5012841;28;22019;-47
2021/11/15 12:33:24;;;;;;;33.90;19.27;;;7.30;99.90;;;;;;5007020;28;20211;-46
2021/11/15 12:35:54;;;;;;;33.10;19.03;;;7.30;99.90;;;;;;5001861;28;20223;-47
2021/11/15 12:38:44;;;;;;;34.97;20.20;;;7.30;99.90;;;;;;5013461;28;20616;-47
2021/11/15 12:41:36;;;;;;;33.17;18.40;;;7.30;99.90;;;;;;5008697;28;20699;-48
2021/11/15 12:44:31;;;;;;;33.43;19.17;;;7.30;99.90;;;;;;5014813;28;20304;-49